Time;durP1;ratioP1;P1;durP2;ratioP2;P2;SDS_P1;SDS_P2;PMS_P1;PMS_P2;Temp;Humidity;BMP_temperature;BMP_pressure;BME280_temperature;BME280_humidity;BME280_pressure;Samples;Min_cycle;Max_cycle;Signal;HPM_P1;HPM_P2
2023/07/27 00:02:03;;;;;;;6.50;4.50;;;;;;;10.77;72.95;99929.32;128389;1296;129818;-67
2023/07/27 00:05:54;;;;;;;;;;;;;;;;;;;;;
2023/07/27 00:10:23;;;;;;;8.10;4.30;;;;;;;10.69;73.43;99926.90;125974;1318;115175;-65
2023/07/27 00:17:50;;;;;;;;;;;;;;;;;;;;;
2023/07/27 00:22:11;;;;;;;8.40;5.40;;;;;;;10.62;74.00;99933.92;126198;1299;636047;-65
2023/07/27 00:26:14;;;;;;;8.20;5.30;;;;;;;10.58;74.17;99932.01;127967;1284;128726;-64
2023/07/27 00:30:14;;;;;;;6.60;5.10;;;;;;;10.54;74.31;99933.63;126323;1314;115362;-65
2023/07/27 00:34:14;;;;;;;5.90;4.10;;;;;;;10.51;74.49;99933.06;121820;1303;5429402;-66
2023/07/27 00:38:15;;;;;;;9.50;5.60;;;;;;;10.49;74.62;99938.00;124568;1313;114900;-67
2023/07/27 00:46:30;;;;;;;5.60;4.00;;;;;;;10.46;74.80;99934.95;126323;1305;636124;-65
2023/07/27 00:50:34;;;;;;;4.60;3.90;;;;;;;10.42;74.91;99934.66;128142;1296;128091;-65
2023/07/27 00:54:34;;;;;;;7.10;4.30;;;;;;;10.38;75.08;99939.66;127277;1307;115360;-66
2023/07/27 00:58:33;;;;;;;;;;;;;;;;;;;;;
2023/07/27 01:02:33;;;;;;;;;;;;;;;;;;;;;
2023/07/27 01:10:15;;;;;;;7.00;4.30;;;;;;;10.27;75.53;99934.55;126307;1294;636020;-67
2023/07/27 01:14:22;;;;;;;4.10;3.70;;;;;;;10.23;75.79;99934.41;128777;1279;128918;-67
2023/07/27 01:18:43;;;;;;;6.20;4.00;;;;;;;10.19;75.99;99932.45;129086;1271;115223;-67
2023/07/27 01:22:44;;;;;;;6.10;4.30;;;;;;;10.16;75.95;99926.37;124821;1291;5475362;-66
2023/07/27 01:27:11;;;;;;;7.30;4.20;;;;;;;10.12;76.12;99925.70;128630;1294;114878;-66
2023/07/27 01:31:27;;;;;;;6.60;3.90;;;;;;;10.10;76.46;99921.36;128920;1294;114933;-65
2023/07/27 01:39:21;;;;;;;9.10;4.60;;;;;;;10.03;76.70;99924.20;128137;1276;127338;-66
2023/07/27 01:43:30;;;;;;;5.30;4.20;;;;;;;10.00;76.71;99922.56;127342;1304;114920;-66
2023/07/27 01:47:31;;;;;;;8.50;5.00;;;;;;;9.98;76.78;99927.51;126427;1295;114815;-65
2023/07/27 01:51:16;;;;;;;10.20;4.90;;;;;;;9.95;76.88;99929.79;125154;1320;115056;-66
2023/07/27 01:54:47;;;;;;;;;;;;;;;;;;;;;
2023/07/27 01:57:52;;;;;;;5.70;4.70;;;;;;;9.91;77.12;99930.93;124679;1331;127046;-66
2023/07/27 02:01:54;;;;;;;6.80;5.10;;;;;;;9.90;76.93;99930.25;124310;1329;114949;-66
2023/07/27 02:05:45;;;;;;;5.60;4.20;;;;;;;9.88;77.27;99941.40;124896;1310;114961;-65
2023/07/27 02:13:52;;;;;;;6.30;5.20;;;;;;;9.87;77.53;99935.22;126409;1297;636830;-65
2023/07/27 02:17:55;;;;;;;;;;;;;;;;;;;;;
2023/07/27 02:21:57;;;;;;;;;;;;;;;;;;;;;
2023/07/27 02:25:51;;;;;;;;;;;;;;;;;;;;;
2023/07/27 02:29:32;;;;;;;;;;;;;;;;;;;;;
2023/07/27 02:33:34;;;;;;;;;;;;;;;;;;;;;
2023/07/27 02:37:02;;;;;;;;;;;;;;;9.77;78.64;99940.73;122745;1325;130642;-66
2023/07/27 02:41:13;;;;;;;;;;;;;;;;;;;;;
2023/07/27 02:45:17;;;;;;;6.60;5.30;;;;;;;9.89;78.91;99950.80;128235;1298;128948;-66
2023/07/27 02:49:19;;;;;;;9.20;5.70;;;;;;;9.94;79.19;99951.09;126272;1311;114895;-66
2023/07/27 02:53:20;;;;;;;8.70;5.00;;;;;;;9.98;79.05;99955.50;121048;1310;5469945;-67
2023/07/27 03:01:23;;;;;;;;;;;;;;;;;;;;;
2023/07/27 03:05:23;;;;;;;9.90;5.40;;;;;;;10.21;79.80;99953.04;128232;1283;128872;-67
2023/07/27 03:09:16;;;;;;;;;;;;;;;;;;;;;
2023/07/27 03:12:50;;;;;;;;;;;;;;;;;;;;;
2023/07/27 03:16:55;;;;;;;5.30;4.70;;;;;;;10.35;79.78;99967.30;123681;1295;114997;-68
2023/07/27 03:20:51;;;;;;;;;;;;;;;;;;;;;
2023/07/27 03:28:54;;;;;;;6.60;5.10;;;;;;;10.39;79.37;99966.74;124891;1324;128796;-68
2023/07/27 03:37:18;;;;;;;6.90;4.90;;;;;;;10.49;79.70;99960.50;126393;1297;636018;-64
2023/07/27 03:41:02;;;;;;;;;;;;;;;;;;;;;
2023/07/27 03:45:06;;;;;;;5.70;4.80;;;;;;;10.55;79.79;99963.59;127429;1286;114981;-66
2023/07/27 03:48:49;;;;;;;;;;;;;;;;;;;;;
2023/07/27 03:52:59;;;;;;;8.20;4.90;;;;;;;10.72;80.11;99954.63;125856;1300;114856;-66
2023/07/27 03:57:00;;;;;;;6.00;4.60;;;;;;;10.81;80.07;99957.31;125309;1322;115326;-64
2023/07/27 04:00:51;;;;;;;;;;;;;;;;;;;;;
2023/07/27 04:09:14;;;;;;;5.40;4.50;;;;;;;11.15;80.14;99954.50;126670;1303;635133;-63
2023/07/27 04:13:16;;;;;;;;;;;;;;;;;;;;;
2023/07/27 04:17:10;;;;;;;;;;;;;;;;;;;;;
2023/07/27 04:20:54;;;;;;;7.70;5.30;;;;;;;11.45;80.38;99959.77;121762;1318;5386789;-66
2023/07/27 04:24:55;;;;;;;7.80;5.00;;;;;;;11.57;80.48;99959.27;125259;1305;114810;-68
2023/07/27 04:28:38;;;;;;;8.20;5.20;;;;;;;11.72;80.57;99957.09;124197;1315;115087;-67
2023/07/27 04:32:04;;;;;;;7.70;4.40;;;;;;;11.87;80.43;99954.40;124312;1324;114832;-68
2023/07/27 04:35:34;;;;;;;9.70;4.80;;;;;;;12.01;80.70;99955.17;124239;1317;129576;-67
2023/07/27 04:43:49;;;;;;;10.90;5.20;;;;;;;12.40;80.78;99953.51;126193;1296;636747;-67
2023/07/27 04:47:50;;;;;;;7.70;4.80;;;;;;;12.65;80.71;99946.23;128446;1278;129263;-67
2023/07/27 04:51:53;;;;;;;6.00;4.40;;;;;;;13.42;82.11;99948.02;127917;1298;115395;-69
2023/07/27 04:55:17;;;;;;;8.40;4.50;;;;;;;15.05;82.16;99943.28;124303;1291;5430136;-68
2023/07/27 04:59:21;;;;;;;4.70;3.70;;;;;;;16.49;80.61;99943.50;127554;1285;114875;-67
2023/07/27 05:02:54;;;;;;;4.30;2.80;;;;;;;18.08;77.96;99947.13;126591;1305;114970;-68
2023/07/27 05:06:38;;;;;;;2.90;2.70;;;;;;;19.19;75.77;99938.64;125765;1296;126936;-69
2023/07/27 05:09:44;;;;;;;4.10;3.20;;;;;;;19.95;72.86;99938.14;126308;1295;115543;-70
2023/07/27 05:13:36;;;;;;;3.60;3.20;;;;;;;20.33;71.47;99942.67;126509;1296;114964;-71
2023/07/27 05:16:41;;;;;;;4.00;3.20;;;;;;;20.68;69.85;99945.69;126603;1309;115355;-68
2023/07/27 05:19:53;;;;;;;5.10;2.70;;;;;;;20.93;68.70;99941.70;126404;1295;115876;-71
2023/07/27 05:22:58;;;;;;;9.40;2.70;;;;;;;21.15;67.52;99941.44;126552;1293;127920;-70
2023/07/27 05:26:23;;;;;;;3.70;2.60;;;;;;;21.24;66.27;99943.84;126430;1289;115422;-67
2023/07/27 05:29:39;;;;;;;6.70;2.80;;;;;;;21.16;65.39;99949.52;126864;1289;114948;-69
2023/07/27 05:33:29;;;;;;;;;;;;;;;;;;;;;
2023/07/27 05:37:09;;;;;;;10.30;2.60;;;;;;;20.91;63.88;99950.56;126819;1310;114974;-66
2023/07/27 05:41:11;;;;;;;3.50;2.30;;;;;;;20.68;63.29;99955.89;129005;1286;129031;-69
2023/07/27 05:44:41;;;;;;;;;;;;;;;;;;;;;
2023/07/27 05:48:35;;;;;;;;;;;;;;;;;;;;;
2023/07/27 05:52:13;;;;;;;;;;;;;;;;;;;;;
2023/07/27 05:55:57;;;;;;;4.00;2.60;;;;;;;21.00;61.05;99960.61;127515;1301;114903;-66
2023/07/27 05:59:43;;;;;;;;;;;;;;;;;;;;;
2023/07/27 06:03:18;;;;;;;4.90;2.10;;;;;;;21.72;60.23;99956.66;127422;1286;115278;-72
2023/07/27 06:07:17;;;;;;;;;;;;;;;;;;;;;
2023/07/27 06:11:19;;;;;;;3.10;2.40;;;;;;;22.50;59.14;99957.75;126149;1290;114899;-69
2023/07/27 06:14:51;;;;;;;3.00;2.20;;;;;;;22.89;57.78;99954.89;125905;1311;115328;-71
2023/07/27 06:18:36;;;;;;;10.80;2.80;;;;;;;23.16;57.18;99954.05;126174;1295;127466;-69
2023/07/27 06:21:57;;;;;;;2.80;2.30;;;;;;;23.55;56.87;99945.81;126360;1290;115004;-70
2023/07/27 06:25:33;;;;;;;3.10;2.20;;;;;;;23.89;56.06;99946.45;126700;1311;114921;-70
2023/07/27 06:29:19;;;;;;;3.80;2.10;;;;;;;24.28;55.48;99943.92;127012;1283;114908;-71
2023/07/27 06:32:53;;;;;;;2.30;1.90;;;;;;;24.57;54.45;99946.73;127723;1279;114913;-71
2023/07/27 06:36:41;;;;;;;4.20;2.10;;;;;;;24.68;53.23;99944.16;127955;1298;128921;-67
2023/07/27 06:40:55;;;;;;;3.40;2.40;;;;;;;24.86;52.61;99939.96;128007;1282;114861;-66
2023/07/27 06:44:54;;;;;;;2.40;2.20;;;;;;;25.11;52.00;99938.19;127850;1279;114951;-66
2023/07/27 06:48:54;;;;;;;6.30;2.40;;;;;;;25.35;51.03;99938.02;128474;1292;114813;-65
2023/07/27 06:52:32;;;;;;;2.40;2.10;;;;;;;25.49;50.15;99933.90;128294;1295;114922;-64
2023/07/27 06:56:03;;;;;;;3.30;2.30;;;;;;;25.56;49.70;99935.27;128465;1279;120088;-68
2023/07/27 06:59:32;;;;;;;5.50;2.70;;;;;;;25.65;49.08;99938.41;128456;1280;114864;-65
2023/07/27 07:02:55;;;;;;;4.70;3.60;;;;;;;25.79;48.97;99931.82;128300;1277;114923;-68
2023/07/27 07:06:41;;;;;;;;;;;;;;;;;;;;;
2023/07/27 07:10:15;;;;;;;4.80;2.50;;;;;;;26.30;48.14;99930.76;128091;1291;114930;-66
2023/07/27 07:13:51;;;;;;;3.50;2.30;;;;;;;26.62;47.87;99936.23;128248;1279;120522;-71
2023/07/27 07:17:46;;;;;;;;;;;;;;;;;;;;;
2023/07/27 07:21:42;;;;;;;3.20;1.90;;;;;;;27.36;46.41;99939.14;128054;1277;114966;-67
2023/07/27 07:25:25;;;;;;;4.80;2.00;;;;;;;27.67;45.45;99938.76;128186;1292;114883;-67
2023/07/27 07:29:28;;;;;;;;;;;;;;;;;;;;;
2023/07/27 07:32:53;;;;;;;3.70;2.30;;;;;;;28.20;44.12;99938.52;128242;1282;119613;-67
2023/07/27 07:36:18;;;;;;;6.90;2.70;;;;;;;28.45;43.63;99938.26;128522;1276;114990;-66
2023/07/27 07:40:16;;;;;;;2.60;2.10;;;;;;;28.79;43.17;99935.99;128194;1282;114937;-67
2023/07/27 07:43:58;;;;;;;3.30;2.10;;;;;;;29.16;42.45;99932.19;128534;1274;114845;-67
2023/07/27 07:47:33;;;;;;;;;;;;;;;;;;;;;
2023/07/27 07:50:57;;;;;;;2.50;1.90;;;;;;;29.82;41.59;99933.29;128310;1294;120477;-73
2023/07/27 07:54:00;;;;;;;7.40;2.40;;;;;;;30.06;41.15;99932.51;128578;1289;117131;-67
2023/07/27 07:57:19;;;;;;;2.90;2.40;;;;;;;30.30;41.01;99933.87;128889;1270;114785;-69
2023/07/27 08:00:31;;;;;;;3.10;2.10;;;;;;;30.50;40.18;99930.86;129149;1274;114773;-70
2023/07/27 08:03:53;;;;;;;;;;;;;;;;;;;;;
2023/07/27 08:07:05;;;;;;;3.40;2.00;;;;;;;30.67;38.72;99928.55;129485;1286;119445;-69
2023/07/27 08:10:07;;;;;;;3.20;1.90;;;;;;;30.63;38.56;99922.24;129538;1267;114810;-65
2023/07/27 08:13:19;;;;;;;5.60;2.40;;;;;;;30.73;38.34;99920.83;129661;1280;114844;-67
2023/07/27 08:16:53;;;;;;;5.50;2.40;;;;;;;30.86;37.86;99917.32;129136;1267;114878;-66
2023/07/27 08:20:25;;;;;;;;;;;;;;;;;;;;;
2023/07/27 08:24:11;;;;;;;2.50;1.90;;;;;;;31.39;37.24;99906.31;129139;1257;120241;-69
2023/07/27 08:27:42;;;;;;;2.30;2.10;;;;;;;31.59;36.79;99908.21;129475;1267;114840;-66
2023/07/27 08:31:12;;;;;;;2.60;2.20;;;;;;;31.78;36.52;99904.67;129275;1270;114946;-67
2023/07/27 08:34:38;;;;;;;5.90;2.20;;;;;;;31.75;35.64;99899.42;129479;1267;114817;-66
2023/07/27 08:38:27;;;;;;;3.00;2.00;;;;;;;31.56;35.43;99895.89;129049;1268;114938;-66
2023/07/27 08:42:11;;;;;;;;;;;;;;;;;;;;;
2023/07/27 08:46:01;;;;;;;2.20;2.00;;;;;;;31.19;35.38;99887.42;128426;1270;114923;-68
2023/07/27 08:49:49;;;;;;;2.30;1.80;;;;;;;30.95;34.59;99882.80;128242;1274;114804;-66
2023/07/27 08:53:32;;;;;;;;;;;;;;;;;;;;;
2023/07/27 08:57:18;;;;;;;1.80;1.70;;;;;;;30.87;34.10;99874.67;127753;1297;115468;-70
2023/07/27 09:00:52;;;;;;;3.90;1.70;;;;;;;30.35;33.98;99876.77;127972;1280;119278;-67
2023/07/27 09:04:28;;;;;;;2.90;1.60;;;;;;;29.96;33.97;99879.30;128566;1276;114935;-66
2023/07/27 09:07:52;;;;;;;;;;;;;;;;;;;;;
2023/07/27 09:11:37;;;;;;;4.30;1.80;;;;;;;29.78;34.31;99877.34;128756;1291;114845;-68
2023/07/27 09:15:31;;;;;;;3.00;2.30;;;;;;;29.89;34.06;99867.52;128976;1273;115397;-68
2023/07/27 09:19:27;;;;;;;1.80;1.60;;;;;;;29.72;34.13;99870.52;128648;1270;119233;-66
2023/07/27 09:23:35;;;;;;;2.20;1.80;;;;;;;29.62;33.90;99869.92;128497;1292;114753;-66
2023/07/27 09:27:35;;;;;;;;;;;;;;;;;;;;;
2023/07/27 09:31:38;;;;;;;;;;;;;;;;;;;;;
2023/07/27 09:35:37;;;;;;;;;;;;;;;;;;;;;
2023/07/27 09:39:24;;;;;;;1.60;1.20;;;;;;;29.34;34.19;99857.35;126155;1295;121197;-66
2023/07/27 09:42:55;;;;;;;2.00;1.80;;;;;;;29.18;33.99;99854.02;125661;1321;115076;-65
2023/07/27 09:46:02;;;;;;;1.70;1.60;;;;;;;29.04;34.03;99849.30;125682;1315;115417;-66
2023/07/27 09:49:21;;;;;;;2.30;1.70;;;;;;;28.99;33.93;99842.99;125802;1304;114917;-67
2023/07/27 09:52:40;;;;;;;1.80;1.40;;;;;;;28.90;33.24;99840.94;125740;1303;115127;-68
2023/07/27 09:55:57;;;;;;;1.70;1.60;;;;;;;28.61;33.27;99841.24;125952;1307;121141;-67
2023/07/27 09:59:06;;;;;;;1.80;1.70;;;;;;;28.31;33.63;99840.26;126137;1299;114901;-68
2023/07/27 10:02:20;;;;;;;;;;;;;;;;;;;;;
2023/07/27 10:05:48;;;;;;;6.70;1.70;;;;;;;28.19;34.59;99838.98;126765;1287;114954;-68
2023/07/27 10:09:22;;;;;;;2.90;1.40;;;;;;;28.12;34.18;99825.25;128340;1279;114842;-70
2023/07/27 10:12:32;;;;;;;1.50;1.40;;;;;;;28.03;34.26;99825.60;128820;1291;121123;-69
2023/07/27 10:16:04;;;;;;;1.90;1.30;;;;;;;27.95;34.09;99822.46;129347;1267;114872;-68
2023/07/27 10:19:14;;;;;;;3.40;1.60;;;;;;;27.87;33.92;99823.46;129685;1269;114949;-65
2023/07/27 10:22:20;;;;;;;2.70;1.50;;;;;;;27.74;33.87;99821.89;130029;1262;114730;-67
2023/07/27 10:25:27;;;;;;;1.90;1.40;;;;;;;27.73;34.16;99821.50;129836;1272;114792;-67
2023/07/27 10:28:52;;;;;;;3.30;1.20;;;;;;;27.73;33.87;99816.72;130213;1259;120299;-67
2023/07/27 10:32:31;;;;;;;3.30;1.60;;;;;;;27.65;33.89;99813.88;130043;1277;114795;-67
2023/07/27 10:36:07;;;;;;;2.10;1.50;;;;;;;27.59;34.22;99812.00;130260;1259;114886;-68
2023/07/27 10:39:26;;;;;;;;;;;;;;;;;;;;;
2023/07/27 10:42:36;;;;;;;2.40;1.20;;;;;;;27.54;33.57;99798.67;130029;1255;114821;-67
2023/07/27 10:46:23;;;;;;;4.70;1.30;;;;;;;27.45;33.06;99793.68;130408;1259;120161;-68
2023/07/27 10:49:50;;;;;;;1.80;1.20;;;;;;;27.36;33.21;99788.77;130305;1259;114725;-66
2023/07/27 10:53:23;;;;;;;3.00;1.40;;;;;;;27.30;33.71;99788.68;130144;1262;114832;-65
2023/07/27 10:56:35;;;;;;;1.50;1.40;;;;;;;27.30;33.61;99782.96;129606;1265;114905;-66
2023/07/27 11:00:00;;;;;;;2.10;1.40;;;;;;;27.19;33.55;99779.23;129659;1267;115484;-66
2023/07/27 11:03:53;;;;;;;;;;;;;;;;;;;;;
2023/07/27 11:07:33;;;;;;;2.80;1.70;;;;;;;27.14;33.34;99767.35;128821;1277;114932;-70
2023/07/27 11:11:21;;;;;;;3.60;1.80;;;;;;;27.17;33.19;99760.77;128081;1282;114952;-71
2023/07/27 11:15:00;;;;;;;;;;;;;;;;;;;;;
2023/07/27 11:18:41;;;;;;;2.50;1.70;;;;;;;26.88;32.85;99753.07;127634;1280;114875;-70
2023/07/27 11:22:30;;;;;;;2.00;1.50;;;;;;;26.76;32.87;99749.00;127578;1283;119529;-71
2023/07/27 11:26:34;;;;;;;2.00;1.80;;;;;;;26.62;32.74;99738.27;127735;1293;115212;-72
2023/07/27 11:30:09;;;;;;;2.40;1.50;;;;;;;26.60;33.30;99735.00;126854;1291;115071;-72
2023/07/27 11:33:48;;;;;;;;;;;;;;;;;;;;;
2023/07/27 11:37:48;;;;;;;2.50;2.10;;;;;;;26.35;32.98;99730.48;126543;1312;114894;-68
2023/07/27 11:41:43;;;;;;;2.70;1.90;;;;;;;26.23;33.06;99722.60;125746;1319;119525;-70
2023/07/27 11:45:44;;;;;;;1.80;1.70;;;;;;;26.26;33.75;99714.31;125964;1296;115026;-70
2023/07/27 11:49:07;;;;;;;6.80;1.80;;;;;;;26.34;33.90;99711.02;126390;1296;114869;-73
2023/07/27 11:53:08;;;;;;;3.80;1.90;;;;;;;26.38;33.70;99702.06;126375;1294;114968;-68
2023/07/27 11:57:03;;;;;;;2.10;1.20;;;;;;;26.36;33.64;99697.98;126406;1298;114978;-70
2023/07/27 12:05:05;;;;;;;1.80;1.70;;;;;;;26.23;33.75;99684.50;126045;1294;640385;-70
2023/07/27 12:08:32;;;;;;;;;;;;;;;;;;;;;
2023/07/27 12:12:09;;;;;;;;;;;;;;;;;;;;;
2023/07/27 12:15:45;;;;;;;2.60;1.60;;;;;;;26.30;34.11;99684.70;129111;1272;114915;-71
2023/07/27 12:19:13;;;;;;;;;;;;;;;;;;;;;
2023/07/27 12:22:47;;;;;;;;;;;;;;;;;;;;;
2023/07/27 12:26:12;;;;;;;2.40;1.70;;;;;;;26.38;33.74;99680.09;129208;1286;114819;-72
2023/07/27 12:29:54;;;;;;;4.40;2.00;;;;;;;26.41;33.83;99672.08;129588;1284;120130;-71
2023/07/27 12:33:20;;;;;;;2.70;1.80;;;;;;;26.51;34.07;99663.06;129273;1267;114824;-73
2023/07/27 12:36:54;;;;;;;3.00;2.40;;;;;;;26.65;33.87;99661.71;129626;1267;114765;-71
2023/07/27 12:40:49;;;;;;;;;;;;;;;;;;;;;
2023/07/27 12:44:53;;;;;;;2.40;2.10;;;;;;;26.90;34.05;99656.50;128386;1279;114992;-71
2023/07/27 12:48:58;;;;;;;;;;;;;;;;;;;;;
2023/07/27 12:52:28;;;;;;;3.00;2.10;;;;;;;27.12;33.61;99649.38;126769;1309;115356;-73
2023/07/27 12:56:08;;;;;;;2.80;2.10;;;;;;;27.20;33.75;99643.64;126647;1291;114949;-72
2023/07/27 13:00:02;;;;;;;2.20;2.00;;;;;;;27.26;33.67;99640.05;126511;1298;114888;-71
2023/07/27 13:03:38;;;;;;;2.60;2.20;;;;;;;27.32;33.70;99635.97;125962;1315;115025;-71
2023/07/27 13:07:40;;;;;;;5.30;2.10;;;;;;;27.35;33.39;99631.81;126332;1292;119250;-73
2023/07/27 13:11:21;;;;;;;;;;;;;;;;;;;;;
2023/07/27 13:15:13;;;;;;;2.30;1.80;;;;;;;27.31;33.91;99635.20;125430;1307;115030;-71
2023/07/27 13:18:48;;;;;;;4.60;2.10;;;;;;;27.25;33.94;99638.38;125315;1304;114985;-74
2023/07/27 13:22:25;;;;;;;4.80;2.00;;;;;;;27.14;33.96;99629.31;125818;1307;114896;-73
2023/07/27 13:26:27;;;;;;;2.40;2.20;;;;;;;27.08;34.18;99625.00;126417;1291;121352;-72
2023/07/27 13:30:02;;;;;;;;;;;;;;;;;;;;;
2023/07/27 13:34:04;;;;;;;;;;;;;;;;;;;;;
2023/07/27 13:37:28;;;;;;;;;;;;;;;;;;;;;
2023/07/27 13:41:30;;;;;;;4.30;2.30;;;;;;;27.15;33.87;99614.59;127314;1285;115022;-71
2023/07/27 13:45:04;;;;;;;;;;;;;;;;;;;;;
2023/07/27 13:48:28;;;;;;;2.70;2.50;;;;;;;27.20;33.77;99612.27;126784;1288;114944;-69
2023/07/27 13:52:27;;;;;;;3.30;2.10;;;;;;;27.23;33.30;99612.44;127368;1291;114984;-71
2023/07/27 13:56:15;;;;;;;3.50;2.30;;;;;;;27.18;33.14;99608.30;127957;1283;114878;-71
2023/07/27 13:59:31;;;;;;;3.90;2.30;;;;;;;27.17;33.57;99610.27;128059;1283;114949;-74
2023/07/27 14:03:24;;;;;;;5.10;2.60;;;;;;;27.15;33.68;99607.83;127834;1283;120067;-70
2023/07/27 14:07:28;;;;;;;5.30;2.60;;;;;;;27.09;33.93;99604.49;127486;1283;114998;-73
2023/07/27 14:11:16;;;;;;;;;;;;;;;;;;;;;
2023/07/27 14:15:00;;;;;;;3.40;3.10;;;;;;;26.98;34.23;99595.27;126972;1288;114970;-74
2023/07/27 14:18:41;;;;;;;;;;;;;;;;;;;;;
2023/07/27 14:22:23;;;;;;;;;;;;;;;;;;;;;
2023/07/27 14:26:25;;;;;;;2.90;2.50;;;;;;;26.99;34.02;99586.61;127611;1304;114851;-67
2023/07/27 14:30:06;;;;;;;3.50;3.00;;;;;;;26.94;33.71;99584.09;126890;1289;114849;-72
2023/07/27 14:33:54;;;;;;;6.90;3.10;;;;;;;26.91;33.90;99579.25;127008;1289;114895;-73
2023/07/27 14:37:28;;;;;;;3.50;2.70;;;;;;;26.91;33.96;99578.52;126714;1295;114952;-74
2023/07/27 14:41:06;;;;;;;;;;;;;;;26.89;34.13;99575.86;126499;1311;120784;-72
2023/07/27 14:44:48;;;;;;;4.60;2.40;;;;;;;26.89;34.09;99573.18;126725;1295;115083;-73
2023/07/27 14:48:27;;;;;;;;;;;;;;;;;;;;;
2023/07/27 14:52:11;;;;;;;4.10;2.60;;;;;;;26.92;33.71;99567.13;127979;1283;114999;-70
2023/07/27 14:55:53;;;;;;;3.40;2.30;;;;;;;26.94;34.00;99559.52;128241;1283;114829;-70
2023/07/27 14:59:21;;;;;;;3.80;2.60;;;;;;;26.92;33.86;99553.46;128783;1276;120278;-72
2023/07/27 15:02:59;;;;;;;3.70;2.50;;;;;;;26.82;34.07;99553.09;128495;1268;114914;-70
2023/07/27 15:06:48;;;;;;;3.50;2.60;;;;;;;26.73;34.00;99552.33;129239;1273;114917;-72
2023/07/27 15:10:04;;;;;;;3.30;2.60;;;;;;;26.61;33.87;99549.33;130185;1260;114794;-73
2023/07/27 15:13:26;;;;;;;2.70;2.30;;;;;;;26.52;34.43;99546.64;129933;1261;114807;-71
2023/07/27 15:16:51;;;;;;;;;;;;;;;;;;;;;
2023/07/27 15:20:32;;;;;;;;;;;;;;;26.44;34.64;99548.02;130087;1260;114724;-72
2023/07/27 15:23:53;;;;;;;2.80;2.30;;;;;;;26.37;34.07;99543.64;130027;1260;114756;-74
2023/07/27 15:27:27;;;;;;;5.10;2.30;;;;;;;26.30;34.34;99541.43;130008;1261;114791;-67
2023/07/27 15:31:00;;;;;;;3.90;2.50;;;;;;;26.27;34.26;99540.19;130094;1257;114698;-70
2023/07/27 15:34:30;;;;;;;3.30;2.40;;;;;;;26.22;34.04;99533.52;130011;1278;118926;-68
2023/07/27 15:38:01;;;;;;;2.60;2.30;;;;;;;26.15;33.87;99534.89;129567;1269;114811;-67
2023/07/27 15:41:06;;;;;;;4.10;2.40;;;;;;;26.09;34.44;99534.55;130046;1270;115237;-75
2023/07/27 15:44:49;;;;;;;4.10;2.50;;;;;;;26.04;34.19;99531.36;130215;1260;114793;-72
2023/07/27 15:48:27;;;;;;;2.30;2.10;;;;;;;25.91;33.98;99521.80;130198;1269;114726;-75
2023/07/27 15:52:03;;;;;;;;;;;;;;;;;;;;;
2023/07/27 15:55:38;;;;;;;4.50;2.00;;;;;;;25.60;33.96;99521.26;130114;1272;114717;-73
2023/07/27 15:59:11;;;;;;;2.60;2.40;;;;;;;25.45;34.28;99522.98;129942;1260;114801;-74
2023/07/27 16:02:25;;;;;;;3.90;2.20;;;;;;;25.28;34.45;99518.02;129829;1263;114908;-73
2023/07/27 16:05:47;;;;;;;4.50;2.70;;;;;;;25.11;34.39;99519.33;130108;1261;115213;-74
2023/07/27 16:09:16;;;;;;;3.80;2.40;;;;;;;24.93;34.48;99517.11;129967;1269;119535;-73
2023/07/27 16:13:03;;;;;;;2.80;2.30;;;;;;;24.80;34.82;99512.88;129977;1269;114794;-69
2023/07/27 16:16:46;;;;;;;6.10;2.60;;;;;;;24.68;34.90;99512.55;130145;1261;115099;-75
2023/07/27 16:20:18;;;;;;;2.90;2.30;;;;;;;24.57;35.04;99513.23;129594;1270;114845;-74
2023/07/27 16:24:02;;;;;;;;;;;;;;;;;;;;;
2023/07/27 16:27:49;;;;;;;3.10;2.40;;;;;;;24.42;35.24;99506.50;129232;1273;129181;-70
2023/07/27 16:31:20;;;;;;;;;;;;;;;24.31;35.40;99507.30;129584;1285;114897;-73
2023/07/27 16:35:11;;;;;;;5.10;2.10;;;;;;;24.20;35.74;99507.08;129659;1268;114801;-73
2023/07/27 16:38:44;;;;;;;6.70;2.60;;;;;;;24.10;35.93;99503.74;129505;1269;114898;-75
2023/07/27 16:42:33;;;;;;;6.40;2.40;;;;;;;24.03;36.02;99504.85;129431;1268;114807;-73
2023/07/27 16:46:30;;;;;;;;;;;;;;;;;;;;;
2023/07/27 16:50:25;;;;;;;3.30;2.40;;;;;;;23.90;36.67;99498.41;128112;1283;115256;-73
2023/07/27 17:02:12;;;;;;;;;;;;;;;;;;;;;
2023/07/27 17:06:10;;;;;;;;;;;;;;;;;;;;;
2023/07/27 17:09:51;;;;;;;3.80;2.50;;;;;;;23.59;36.68;99497.36;125775;1303;115359;-72
2023/07/27 17:13:27;;;;;;;5.40;2.70;;;;;;;23.53;36.79;99502.15;126261;1301;114805;-73
2023/07/27 17:16:57;;;;;;;4.20;2.50;;;;;;;23.48;36.93;99496.38;126294;1295;114828;-73
2023/07/27 17:20:16;;;;;;;;;;;;;;;;;;;;;
2023/07/27 17:23:58;;;;;;;;;;;;;;;;;;;;;
2023/07/27 17:28:01;;;;;;;5.40;2.50;;;;;;;23.34;37.20;99505.55;125683;1305;115324;-72
2023/07/27 17:31:32;;;;;;;;;;;;;;;;;;;;;
2023/07/27 17:35:25;;;;;;;;;;;;;;;;;;;;;
2023/07/27 17:38:53;;;;;;;;;;;;;;;;;;;;;
2023/07/27 17:42:42;;;;;;;4.40;2.80;;;;;;;23.02;37.41;99498.52;126870;1306;130724;-70
2023/07/27 17:46:40;;;;;;;3.90;2.70;;;;;;;22.94;37.57;99497.26;126879;1291;115376;-72
2023/07/27 17:49:58;;;;;;;3.40;2.20;;;;;;;22.84;37.88;99498.46;126862;1291;115060;-76
2023/07/27 17:53:49;;;;;;;3.90;2.70;;;;;;;22.75;37.99;99493.50;126958;1292;114784;-73
2023/07/27 17:57:12;;;;;;;4.60;2.90;;;;;;;22.63;38.22;99490.39;127219;1299;114963;-76
2023/07/27 18:00:34;;;;;;;3.30;2.10;;;;;;;22.53;38.17;99490.67;127098;1307;127896;-72
2023/07/27 18:03:50;;;;;;;3.90;2.10;;;;;;;22.45;38.41;99492.11;127403;1282;115467;-72
2023/07/27 18:07:26;;;;;;;3.20;2.20;;;;;;;22.37;38.40;99492.95;128143;1282;114926;-72
2023/07/27 18:11:01;;;;;;;;;;;;;;;;;;;;;
2023/07/27 18:15:01;;;;;;;5.50;3.10;;;;;;;22.20;38.87;99497.23;128494;1286;114872;-74
2023/07/27 18:18:40;;;;;;;;;;;;;;;;;;;;;
2023/07/27 18:22:04;;;;;;;4.00;2.80;;;;;;;22.01;39.30;99494.55;129419;1286;116520;-72
2023/07/27 18:25:46;;;;;;;8.40;3.40;;;;;;;21.93;39.36;99497.51;129005;1270;116114;-73
2023/07/27 18:29:30;;;;;;;;;;;;;;;;;;;;;
2023/07/27 18:32:38;;;;;;;4.50;3.00;;;;;;;21.75;39.65;99506.52;129350;1286;115183;-73
2023/07/27 18:36:19;;;;;;;3.10;2.80;;;;;;;21.66;39.72;99505.80;129438;1266;129465;-66
2023/07/27 18:39:31;;;;;;;3.40;2.20;;;;;;;21.57;39.99;99504.09;129996;1270;115201;-70
2023/07/27 18:42:37;;;;;;;5.10;3.40;;;;;;;21.50;40.07;99501.02;130162;1278;114803;-73
2023/07/27 18:45:55;;;;;;;5.10;2.60;;;;;;;21.44;40.28;99503.44;130307;1260;114799;-69
2023/07/27 18:48:57;;;;;;;4.10;3.20;;;;;;;21.37;40.37;99499.10;130345;1278;114740;-70
2023/07/27 18:52:06;;;;;;;6.20;3.00;;;;;;;21.31;40.63;99499.77;130056;1260;114728;-68
2023/07/27 18:55:24;;;;;;;5.60;2.90;;;;;;;21.25;40.75;99501.90;129988;1278;115149;-67
2023/07/27 18:58:35;;;;;;;4.90;3.20;;;;;;;21.19;41.04;99503.74;130202;1261;115060;-69
2023/07/27 19:01:44;;;;;;;4.90;2.90;;;;;;;21.14;41.05;99507.45;130143;1259;114834;-73
2023/07/27 19:04:55;;;;;;;3.90;2.70;;;;;;;21.09;41.42;99508.45;130050;1269;114809;-72
2023/07/27 19:07:57;;;;;;;2.70;2.40;;;;;;;21.04;41.45;99504.09;130161;1278;128852;-73
2023/07/27 19:11:03;;;;;;;3.60;3.00;;;;;;;20.98;41.41;99504.52;130112;1257;114767;-72
2023/07/27 19:14:06;;;;;;;4.90;2.90;;;;;;;20.94;41.60;99496.98;130147;1261;115132;-69
2023/07/27 19:17:10;;;;;;;4.60;2.60;;;;;;;20.89;41.74;99499.33;130108;1279;114951;-69
2023/07/27 19:20:15;;;;;;;3.20;2.60;;;;;;;20.84;41.94;99498.63;130094;1260;114813;-70
2023/07/27 19:23:17;;;;;;;4.60;2.60;;;;;;;20.79;42.10;99503.47;129917;1257;126748;-71
2023/07/27 19:26:33;;;;;;;4.90;2.80;;;;;;;20.74;42.27;99501.23;130021;1261;114729;-68
2023/07/27 19:29:42;;;;;;;3.20;2.30;;;;;;;20.70;43.08;99504.59;130099;1260;114702;-72
2023/07/27 19:32:50;;;;;;;6.40;2.90;;;;;;;20.62;43.95;99506.41;130091;1257;115100;-71
2023/07/27 19:35:51;;;;;;;3.80;2.60;;;;;;;20.56;45.13;99517.79;129938;1260;114781;-72
2023/07/27 19:38:56;;;;;;;4.90;2.50;;;;;;;20.48;45.79;99514.80;129948;1260;114753;-69
2023/07/27 19:41:58;;;;;;;5.90;2.90;;;;;;;20.39;46.41;99520.69;130012;1261;114885;-71
2023/07/27 19:45:03;;;;;;;3.70;3.00;;;;;;;20.28;46.81;99523.20;130033;1257;115210;-73
2023/07/27 19:48:05;;;;;;;3.60;2.70;;;;;;;20.17;47.56;99521.07;130067;1262;114845;-70
2023/07/27 19:51:07;;;;;;;4.60;2.80;;;;;;;20.07;48.41;99523.17;130112;1260;114737;-68
2023/07/27 19:54:09;;;;;;;5.30;3.30;;;;;;;19.95;49.24;99522.25;130125;1278;114747;-68
2023/07/27 19:57:42;;;;;;;;;;;;;;;;;;;;;
2023/07/27 20:01:05;;;;;;;3.80;3.40;;;;;;;19.69;50.77;99523.48;129769;1275;115175;-69